createdAt,value
2022-11-20T00:01:29.651Z,-2.40
2022-11-20T00:04:01.542Z,-2.30
2022-11-20T00:06:29.650Z,-2.30
2022-11-20T00:08:59.576Z,-2.20
2022-11-20T00:11:29.067Z,-2.20
2022-11-20T00:14:00.260Z,-2.10
2022-11-20T00:16:30.262Z,-2.10
2022-11-20T00:18:57.289Z,-2.00
2022-11-20T00:21:27.630Z,-2.00
2022-11-20T00:23:57.304Z,-2.00
2022-11-20T00:26:26.595Z,-1.90
2022-11-20T00:28:57.269Z,-1.90
2022-11-20T00:31:24.991Z,-1.80
2022-11-20T00:33:55.342Z,-1.80
2022-11-20T00:36:25.745Z,-1.70
2022-11-20T00:38:55.623Z,-1.70
2022-11-20T00:41:23.404Z,-1.60
2022-11-20T00:43:52.667Z,-1.60
2022-11-20T00:46:23.247Z,-1.60
2022-11-20T00:48:51.100Z,-1.50
2022-11-20T00:51:21.755Z,-1.50
2022-11-20T00:53:49.250Z,-1.50
2022-11-20T00:56:19.026Z,-1.50
2022-11-20T00:58:48.754Z,-1.40
2022-11-20T01:01:18.696Z,-1.40
2022-11-20T01:03:49.553Z,-1.40
2022-11-20T01:06:27.379Z,-1.40
2022-11-20T01:08:58.320Z,-1.30
2022-11-20T01:11:29.242Z,-1.30
2022-11-20T01:13:58.873Z,-1.30
2022-11-20T01:16:33.985Z,-1.20
2022-11-20T01:19:05.322Z,-1.20
2022-11-20T01:21:40.118Z,-1.20
2022-11-20T01:24:11.664Z,-1.20
2022-11-20T01:26:41.277Z,-1.20
2022-11-20T01:29:17.812Z,-1.20
2022-11-20T01:31:48.496Z,-1.20
2022-11-20T01:34:19.600Z,-1.20
2022-11-20T01:36:47.324Z,-1.20
2022-11-20T01:39:25.750Z,-1.10
2022-11-20T01:42:13.668Z,-1.10
2022-11-20T01:44:57.287Z,-1.10
2022-11-20T01:47:31.824Z,-1.10
2022-11-20T01:50:26.562Z,-1.10
2022-11-20T01:53:00.236Z,-1.10
2022-11-20T01:55:35.696Z,-1.00
2022-11-20T01:58:05.147Z,-1.00
2022-11-20T02:00:32.684Z,-1.00
2022-11-20T02:03:05.191Z,-1.00
2022-11-20T02:05:46.554Z,-1.00
2022-11-20T02:08:14.099Z,-1.00
2022-11-20T02:10:41.216Z,-0.90
2022-11-20T02:13:27.969Z,-0.90
2022-11-20T02:15:55.231Z,-0.90
2022-11-20T02:18:24.266Z,-0.90
2022-11-20T02:21:26.955Z,-0.90
2022-11-20T02:24:17.257Z,-0.80
2022-11-20T02:27:05.431Z,-0.80
2022-11-20T02:29:39.135Z,-0.80
2022-11-20T02:32:06.267Z,-0.80
2022-11-20T02:34:33.738Z,-0.70
2022-11-20T02:37:01.191Z,-0.70
2022-11-20T02:39:29.546Z,-0.70
2022-11-20T02:41:58.105Z,-0.70
2022-11-20T02:44:25.221Z,-0.70
2022-11-20T02:46:52.305Z,-0.70
2022-11-20T02:49:19.607Z,-0.60
2022-11-20T02:51:47.637Z,-0.60
2022-11-20T02:54:14.613Z,-0.60
2022-11-20T02:56:41.803Z,-0.60
2022-11-20T02:59:09.102Z,-0.60
2022-11-20T03:01:36.630Z,-0.60
2022-11-20T03:04:03.982Z,-0.60
2022-11-20T03:06:31.015Z,-0.60
2022-11-20T03:08:58.839Z,-0.60
2022-11-20T03:11:25.967Z,-0.60
2022-11-20T03:13:53.142Z,-0.60
2022-11-20T03:16:22.880Z,-0.60
2022-11-20T03:18:51.341Z,-0.60
2022-11-20T03:21:18.445Z,-0.60
2022-11-20T03:23:45.620Z,-0.60
2022-11-20T03:26:23.244Z,-0.50
2022-11-20T03:28:54.089Z,-0.50
2022-11-20T03:31:25.688Z,-0.50
2022-11-20T03:33:53.158Z,-0.50
2022-11-20T03:36:21.717Z,-0.50
2022-11-20T03:38:49.795Z,-0.50
2022-11-20T03:41:25.988Z,-0.50
2022-11-20T03:44:02.323Z,-0.50
2022-11-20T03:46:29.927Z,-0.50
2022-11-20T03:48:57.660Z,-0.40
2022-11-20T03:51:27.711Z,-0.50
2022-11-20T03:53:58.087Z,-0.50
2022-11-20T03:56:28.910Z,-0.50
2022-11-20T03:58:59.417Z,-0.50
2022-11-20T04:01:33.023Z,-0.50
2022-11-20T04:04:00.310Z,-0.50
2022-11-20T04:06:31.949Z,-0.50
2022-11-20T04:08:59.887Z,-0.40
2022-11-20T04:11:31.117Z,-0.40
2022-11-20T04:14:02.462Z,-0.40
2022-11-20T04:16:36.291Z,-0.40
2022-11-20T04:19:07.111Z,-0.40
2022-11-20T04:21:34.656Z,-0.30
2022-11-20T04:24:01.822Z,-0.40
2022-11-20T04:26:30.894Z,-0.30
2022-11-20T04:29:02.878Z,-0.30
2022-11-20T04:31:35.135Z,-0.30
2022-11-20T04:34:05.065Z,-0.40
2022-11-20T04:36:32.546Z,-0.30
2022-11-20T04:39:06.120Z,-0.30
2022-11-20T04:41:37.702Z,-0.30
2022-11-20T04:44:06.634Z,-0.30
2022-11-20T04:46:38.011Z,-0.30
2022-11-20T04:49:05.869Z,-0.30
2022-11-20T04:51:34.626Z,-0.30
2022-11-20T04:54:01.786Z,-0.40
2022-11-20T04:56:28.952Z,-0.30
2022-11-20T04:58:56.031Z,-0.30
2022-11-20T05:01:25.889Z,-0.30
2022-11-20T05:03:53.236Z,-0.30
2022-11-20T05:06:22.400Z,-0.30
2022-11-20T05:08:49.921Z,-0.30
2022-11-20T05:11:38.753Z,-0.30
2022-11-20T05:14:05.988Z,-0.30
2022-11-20T05:16:36.749Z,-0.30
2022-11-20T05:19:03.941Z,-0.30
2022-11-20T05:21:33.245Z,-0.30
2022-11-20T05:24:00.398Z,-0.30
2022-11-20T05:26:27.451Z,-0.40
2022-11-20T05:28:54.560Z,-0.30
2022-11-20T05:31:27.955Z,-0.30
2022-11-20T05:33:57.340Z,-0.30
2022-11-20T05:36:24.872Z,-0.30
2022-11-20T05:38:55.465Z,-0.30
2022-11-20T05:41:25.824Z,-0.30
2022-11-20T05:43:52.979Z,-0.30
2022-11-20T05:46:27.881Z,-0.30
2022-11-20T05:48:56.056Z,-0.40
2022-11-20T05:51:23.226Z,-0.40
2022-11-20T05:53:50.450Z,-0.30
2022-11-20T05:56:21.099Z,-0.40
2022-11-20T05:58:48.904Z,-0.30
2022-11-20T06:01:25.757Z,-0.30
2022-11-20T06:03:54.804Z,-0.30
2022-11-20T06:06:22.266Z,-0.20
2022-11-20T06:08:49.789Z,-0.20
2022-11-20T06:11:18.031Z,-0.20
2022-11-20T06:13:46.444Z,-0.20
2022-11-20T06:16:18.522Z,-0.20
2022-11-20T06:18:46.908Z,-0.20
2022-11-20T06:21:22.622Z,-0.20
2022-11-20T06:23:51.602Z,-0.20
2022-11-20T06:26:25.429Z,-0.20
2022-11-20T06:28:53.450Z,-0.20
2022-11-20T06:31:23.877Z,-0.20
2022-11-20T06:33:51.895Z,-0.20
2022-11-20T06:36:22.313Z,-0.20
2022-11-20T06:38:49.558Z,-0.20
2022-11-20T06:41:20.825Z,-0.20
2022-11-20T06:43:48.214Z,-0.20
2022-11-20T06:46:20.252Z,-0.20
2022-11-20T06:48:49.018Z,-0.20
2022-11-20T06:51:16.841Z,-0.20
2022-11-20T06:53:44.065Z,-0.20
2022-11-20T06:56:11.230Z,-0.20
2022-11-20T06:58:38.402Z,-0.20
2022-11-20T07:01:09.703Z,-0.10
2022-11-20T07:03:36.914Z,-0.10
2022-11-20T07:06:05.126Z,-0.20
2022-11-20T07:08:33.267Z,-0.20
2022-11-20T07:11:03.029Z,-0.20
2022-11-20T07:13:30.713Z,-0.20
2022-11-20T07:16:05.769Z,-0.20
2022-11-20T07:18:33.104Z,-0.10
2022-11-20T07:21:09.699Z,-0.20
2022-11-20T07:23:37.662Z,-0.10
2022-11-20T07:26:08.236Z,-0.10
2022-11-20T07:28:36.363Z,-0.10
2022-11-20T07:31:04.683Z,-0.10
2022-11-20T07:33:31.786Z,-0.10
2022-11-20T07:36:00.974Z,-0.10
2022-11-20T07:38:28.306Z,-0.10
2022-11-20T07:40:58.422Z,-0.10
2022-11-20T07:43:28.809Z,-0.10
2022-11-20T07:46:01.065Z,0.00
2022-11-20T07:48:28.177Z,0.00
2022-11-20T07:50:58.307Z,0.10
2022-11-20T07:53:25.702Z,0.10
2022-11-20T07:55:55.519Z,0.10
2022-11-20T07:58:22.936Z,0.10
2022-11-20T08:00:50.621Z,0.10
2022-11-20T08:03:23.190Z,0.10
2022-11-20T08:05:51.775Z,0.10
2022-11-20T08:08:18.813Z,0.10
2022-11-20T08:10:46.006Z,0.10
2022-11-20T08:13:33.516Z,0.20
2022-11-20T08:16:00.552Z,0.20
2022-11-20T08:18:32.510Z,0.20
2022-11-20T08:21:04.819Z,0.20
2022-11-20T08:23:32.546Z,0.20
2022-11-20T08:25:59.557Z,0.20
2022-11-20T08:28:26.634Z,0.30
2022-11-20T08:31:01.053Z,0.30
2022-11-20T08:33:28.571Z,0.30
2022-11-20T08:36:06.442Z,0.40
2022-11-20T08:38:34.037Z,0.40
2022-11-20T08:41:22.080Z,0.40
2022-11-20T08:43:49.324Z,0.50
2022-11-20T08:46:16.550Z,0.60
2022-11-20T08:48:44.029Z,0.60
2022-11-20T08:51:12.387Z,0.60
2022-11-20T08:53:40.558Z,0.60
2022-11-20T08:56:08.038Z,0.60
2022-11-20T08:58:54.934Z,0.70
2022-11-20T09:01:24.207Z,0.70
2022-11-20T09:03:56.225Z,0.70
2022-11-20T09:06:23.376Z,0.80
2022-11-20T09:08:54.789Z,0.80
2022-11-20T09:11:22.739Z,0.90
2022-11-20T09:13:50.045Z,1.00
2022-11-20T09:16:17.113Z,1.00
2022-11-20T09:18:44.267Z,1.00
2022-11-20T09:21:14.005Z,1.10
2022-11-20T09:23:41.634Z,1.20
2022-11-20T09:26:14.677Z,1.20
2022-11-20T09:28:42.351Z,1.30
2022-11-20T09:31:18.868Z,1.30
2022-11-20T09:33:45.905Z,1.40
2022-11-20T09:36:12.879Z,1.40
2022-11-20T09:38:39.863Z,1.60
2022-11-20T09:41:22.312Z,1.70
2022-11-20T09:44:06.750Z,1.70
2022-11-20T09:46:42.927Z,1.80
2022-11-20T09:49:32.102Z,1.90
2022-11-20T09:52:00.706Z,2.00
2022-11-20T09:54:39.333Z,2.10
2022-11-20T09:57:19.400Z,2.20
2022-11-20T09:59:58.384Z,2.30
2022-11-20T10:02:25.357Z,2.30
2022-11-20T10:05:20.632Z,2.40
2022-11-20T10:08:22.951Z,2.40
2022-11-20T10:11:13.534Z,2.60
2022-11-20T10:14:04.790Z,2.80
2022-11-20T10:16:55.154Z,3.00
2022-11-20T10:19:48.785Z,3.10
2022-11-20T10:22:54.283Z,3.00
2022-11-20T10:25:26.028Z,3.10
2022-11-20T10:28:09.261Z,3.20
2022-11-20T10:30:45.312Z,3.30
2022-11-20T10:33:18.811Z,3.40
2022-11-20T10:35:50.595Z,3.20
2022-11-20T10:38:40.342Z,3.30
2022-11-20T10:41:26.598Z,3.40
2022-11-20T10:44:04.955Z,3.60
2022-11-20T10:46:41.961Z,3.70
2022-11-20T10:49:17.067Z,3.90
2022-11-20T10:52:07.131Z,4.10
2022-11-20T10:54:59.183Z,4.00
2022-11-20T10:58:08.069Z,3.90
2022-11-20T11:00:35.524Z,3.90
2022-11-20T11:03:03.772Z,3.80
2022-11-20T11:05:44.835Z,3.80
2022-11-20T11:08:16.104Z,3.80
2022-11-20T11:11:00.477Z,3.80
2022-11-20T11:13:30.952Z,3.90
2022-11-20T11:15:59.146Z,3.90
2022-11-20T11:18:35.332Z,3.90
2022-11-20T11:21:05.692Z,4.00
2022-11-20T11:23:44.103Z,4.00
2022-11-20T11:26:24.585Z,3.90
2022-11-20T11:29:01.190Z,4.00
2022-11-20T11:31:36.319Z,3.90
2022-11-20T11:34:17.020Z,3.90
2022-11-20T11:36:57.851Z,3.80
2022-11-20T11:39:26.396Z,4.00
2022-11-20T11:41:54.062Z,3.90
2022-11-20T11:44:44.862Z,3.90
2022-11-20T11:47:27.628Z,3.90
2022-11-20T11:50:09.987Z,3.90
2022-11-20T11:53:01.524Z,4.10
2022-11-20T11:56:05.388Z,4.20
2022-11-20T11:58:41.092Z,4.40
2022-11-20T12:01:33.891Z,4.60
2022-11-20T12:04:20.494Z,4.70
2022-11-20T12:06:52.779Z,4.80
2022-11-20T12:09:25.637Z,4.70
2022-11-20T12:12:03.917Z,4.80
2022-11-20T12:14:41.999Z,4.80
2022-11-20T12:17:13.918Z,4.90
2022-11-20T12:19:41.935Z,4.90
2022-11-20T12:22:45.141Z,4.80
2022-11-20T12:25:31.686Z,4.70
2022-11-20T12:28:19.944Z,4.50
2022-11-20T12:31:24.556Z,4.50
2022-11-20T12:34:09.627Z,4.40
2022-11-20T12:37:02.324Z,4.20
2022-11-20T12:39:36.971Z,4.20
2022-11-20T12:43:06.449Z,4.00
2022-11-20T12:45:47.882Z,3.90
2022-11-20T12:48:46.448Z,3.90
2022-11-20T12:51:44.668Z,3.90
2022-11-20T12:54:55.371Z,3.90
2022-11-20T12:57:42.061Z,3.90
2022-11-20T13:00:50.810Z,3.80
2022-11-20T13:03:44.428Z,3.70
2022-11-20T13:06:15.175Z,3.70
2022-11-20T13:08:49.384Z,3.60
2022-11-20T13:11:25.581Z,3.50
2022-11-20T13:14:14.537Z,3.50
2022-11-20T13:17:05.885Z,3.40
2022-11-20T13:19:34.160Z,3.40
2022-11-20T13:22:08.199Z,3.40
2022-11-20T13:24:39.691Z,3.50
2022-11-20T13:27:09.424Z,3.50
2022-11-20T13:29:41.040Z,3.50
2022-11-20T13:32:18.282Z,3.50
2022-11-20T13:34:58.056Z,3.40
2022-11-20T13:37:39.165Z,3.40
2022-11-20T13:40:09.857Z,3.40
2022-11-20T13:42:56.882Z,3.30
2022-11-20T13:45:29.124Z,3.20
2022-11-20T13:47:58.145Z,3.20
2022-11-20T13:51:01.263Z,3.10
2022-11-20T13:53:49.805Z,3.10
2022-11-20T13:56:40.671Z,3.10
2022-11-20T13:59:34.277Z,3.10
2022-11-20T14:02:02.296Z,3.10
2022-11-20T14:04:37.260Z,3.20
2022-11-20T14:07:07.646Z,3.20
2022-11-20T14:09:36.095Z,3.10
2022-11-20T14:12:05.421Z,3.10
2022-11-20T14:14:34.702Z,3.10
2022-11-20T14:17:33.522Z,3.10
2022-11-20T14:20:12.358Z,3.00
2022-11-20T14:22:39.490Z,3.00
2022-11-20T14:25:16.576Z,3.00
2022-11-20T14:27:54.203Z,3.00
2022-11-20T14:30:26.240Z,2.90
2022-11-20T14:32:57.575Z,2.90
2022-11-20T14:35:36.476Z,2.90
2022-11-20T14:38:04.667Z,2.80
2022-11-20T14:40:36.882Z,2.80
2022-11-20T14:43:19.117Z,2.80
2022-11-20T14:45:53.383Z,2.70
2022-11-20T14:48:27.451Z,2.70
2022-11-20T14:50:54.634Z,2.60
2022-11-20T14:53:26.402Z,2.60
2022-11-20T14:56:02.720Z,2.60
2022-11-20T14:58:34.275Z,2.60
2022-11-20T15:01:08.185Z,2.50
2022-11-20T15:03:40.932Z,2.50
2022-11-20T15:06:12.164Z,2.40
2022-11-20T15:08:39.286Z,2.40
2022-11-20T15:11:27.030Z,2.40
2022-11-20T15:13:54.170Z,2.30
2022-11-20T15:16:23.050Z,2.30
2022-11-20T15:18:50.440Z,2.30
2022-11-20T15:21:25.020Z,2.20
2022-11-20T15:23:52.401Z,2.20
2022-11-20T15:26:27.753Z,2.20
2022-11-20T15:28:56.045Z,2.20
2022-11-20T15:31:24.763Z,2.10
2022-11-20T15:33:52.064Z,2.10
2022-11-20T15:36:19.153Z,2.10
2022-11-20T15:38:46.625Z,2.00
2022-11-20T15:41:13.905Z,2.00
2022-11-20T15:43:41.043Z,2.00
2022-11-20T15:46:13.868Z,2.00
2022-11-20T15:48:48.585Z,1.90
2022-11-20T15:52:00.684Z,2.00
2022-11-20T15:54:27.934Z,1.90
2022-11-20T15:56:55.213Z,1.90
2022-11-20T15:59:22.475Z,1.90
2022-11-20T16:01:50.092Z,1.90
2022-11-20T16:04:19.291Z,1.80
2022-11-20T16:06:46.329Z,1.80
2022-11-20T16:09:13.482Z,1.90
2022-11-20T16:11:40.841Z,1.90
2022-11-20T16:14:29.837Z,1.90
2022-11-20T16:16:56.983Z,1.90
2022-11-20T16:19:24.699Z,1.80
2022-11-20T16:21:52.296Z,1.90
2022-11-20T16:24:19.534Z,1.90
2022-11-20T16:26:46.760Z,1.90
2022-11-20T16:29:15.070Z,1.90
2022-11-20T16:31:42.096Z,1.90
2022-11-20T16:34:12.259Z,1.90
2022-11-20T16:36:50.966Z,1.90
2022-11-20T16:39:23.366Z,1.80
2022-11-20T16:41:51.356Z,1.80
2022-11-20T16:44:18.497Z,1.80
2022-11-20T16:46:45.650Z,1.80
2022-11-20T16:49:14.525Z,1.80
2022-11-20T16:51:42.955Z,1.80
2022-11-20T16:54:12.355Z,1.80
2022-11-20T16:56:42.994Z,1.80
2022-11-20T16:59:10.928Z,1.80
2022-11-20T17:01:40.303Z,1.80
2022-11-20T17:04:07.876Z,1.90
2022-11-20T17:06:38.974Z,1.80
2022-11-20T17:09:09.476Z,1.80
2022-11-20T17:11:37.378Z,1.80
2022-11-20T17:14:07.306Z,1.70
2022-11-20T17:16:35.894Z,1.80
2022-11-20T17:19:05.165Z,1.80
2022-11-20T17:21:35.990Z,1.80
2022-11-20T17:24:10.146Z,1.70
2022-11-20T17:26:40.558Z,1.70
2022-11-20T17:29:14.789Z,1.70
2022-11-20T17:31:43.267Z,1.70
2022-11-20T17:34:15.521Z,1.70
2022-11-20T17:36:46.997Z,1.70
2022-11-20T17:39:16.040Z,1.70
2022-11-20T17:41:43.875Z,1.60
2022-11-20T17:44:12.536Z,1.60
2022-11-20T17:46:40.074Z,1.60
2022-11-20T17:49:07.570Z,1.60
2022-11-20T17:51:35.672Z,1.60
2022-11-20T17:54:07.480Z,1.60
2022-11-20T17:56:54.593Z,1.60
2022-11-20T17:59:21.960Z,1.60
2022-11-20T18:01:49.376Z,1.60
2022-11-20T18:04:16.881Z,1.60
2022-11-20T18:06:44.267Z,1.60
2022-11-20T18:09:12.229Z,1.60
2022-11-20T18:11:42.229Z,1.60
2022-11-20T18:14:34.575Z,1.60
2022-11-20T18:17:11.705Z,1.60
2022-11-20T18:20:07.126Z,1.60
2022-11-20T18:22:34.603Z,1.50
2022-11-20T18:25:02.402Z,1.50
2022-11-20T18:27:29.591Z,1.50
2022-11-20T18:29:56.635Z,1.40
2022-11-20T18:32:23.819Z,1.40
2022-11-20T18:34:51.351Z,1.40
2022-11-20T18:37:19.319Z,1.40
2022-11-20T18:39:46.484Z,1.40
2022-11-20T18:42:34.955Z,1.40
2022-11-20T18:45:04.385Z,1.30
2022-11-20T18:47:37.324Z,1.40
2022-11-20T18:50:07.807Z,1.40
2022-11-20T18:52:44.569Z,1.30
2022-11-20T18:55:15.284Z,1.40
2022-11-20T18:57:42.546Z,1.40
2022-11-20T19:00:10.544Z,1.40
2022-11-20T19:02:42.251Z,1.40
2022-11-20T19:05:12.620Z,1.50
2022-11-20T19:07:40.436Z,1.40
2022-11-20T19:10:07.828Z,1.50
2022-11-20T19:12:34.969Z,1.50
2022-11-20T19:15:01.993Z,1.50
2022-11-20T19:17:28.977Z,1.50
2022-11-20T19:19:56.571Z,1.50
2022-11-20T19:22:23.894Z,1.50
2022-11-20T19:24:51.206Z,1.50
2022-11-20T19:27:18.413Z,1.50
2022-11-20T19:29:45.539Z,1.50
2022-11-20T19:32:12.762Z,1.50
2022-11-20T19:34:39.949Z,1.50
2022-11-20T19:37:07.188Z,1.50
2022-11-20T19:39:36.198Z,1.60
2022-11-20T19:42:03.350Z,1.60
2022-11-20T19:44:30.499Z,1.60
2022-11-20T19:46:58.561Z,1.60
2022-11-20T19:49:26.073Z,1.60
2022-11-20T19:51:53.440Z,1.60
2022-11-20T19:54:20.512Z,1.60
2022-11-20T19:56:49.366Z,1.60
2022-11-20T19:59:16.815Z,1.60
2022-11-20T20:01:44.083Z,1.60
2022-11-20T20:04:11.330Z,1.60
2022-11-20T20:06:39.916Z,1.60
2022-11-20T20:09:12.095Z,1.60
2022-11-20T20:11:40.147Z,1.60
2022-11-20T20:14:18.440Z,1.60
2022-11-20T20:16:45.697Z,1.60
2022-11-20T20:19:15.670Z,1.60
2022-11-20T20:21:44.406Z,1.60
2022-11-20T20:24:12.271Z,1.60
2022-11-20T20:26:39.891Z,1.60
2022-11-20T20:29:07.226Z,1.60
2022-11-20T20:31:35.618Z,1.50
2022-11-20T20:34:05.237Z,1.50
2022-11-20T20:36:32.988Z,1.50
2022-11-20T20:39:00.203Z,1.50
2022-11-20T20:41:27.464Z,1.50
2022-11-20T20:44:13.554Z,1.50
2022-11-20T20:46:41.739Z,1.40
2022-11-20T20:49:09.630Z,1.40
2022-11-20T20:51:36.944Z,1.40
2022-11-20T20:54:04.620Z,1.40
2022-11-20T20:56:32.092Z,1.40
2022-11-20T20:58:59.361Z,1.30
2022-11-20T21:01:29.140Z,1.40
2022-11-20T21:03:57.411Z,1.40
2022-11-20T21:06:25.480Z,1.40
2022-11-20T21:08:52.767Z,1.40
2022-11-20T21:11:20.824Z,1.40
2022-11-20T21:13:49.533Z,1.40
2022-11-20T21:16:20.554Z,1.40
2022-11-20T21:18:47.836Z,1.40
2022-11-20T21:21:35.306Z,1.40
2022-11-20T21:24:03.121Z,1.40
2022-11-20T21:26:30.203Z,1.40
2022-11-20T21:28:57.715Z,1.40
2022-11-20T21:31:26.942Z,1.40
2022-11-20T21:33:56.474Z,1.40
2022-11-20T21:36:26.998Z,1.40
2022-11-20T21:38:55.696Z,1.40
2022-11-20T21:41:24.883Z,1.40
2022-11-20T21:44:23.551Z,1.40
2022-11-20T21:46:46.203Z,1.40
2022-11-20T21:49:14.537Z,1.40
2022-11-20T21:51:41.904Z,1.40
2022-11-20T21:54:11.348Z,1.40
2022-11-20T21:56:38.772Z,1.40
2022-11-20T21:59:05.960Z,1.40
2022-11-20T22:01:33.343Z,1.40
2022-11-20T22:04:02.235Z,1.40
2022-11-20T22:06:32.974Z,1.40
2022-11-20T22:09:01.480Z,1.40
2022-11-20T22:11:28.628Z,1.40
2022-11-20T22:14:14.147Z,1.40
2022-11-20T22:16:41.369Z,1.40
2022-11-20T22:19:29.463Z,1.40
2022-11-20T22:21:56.574Z,1.40
2022-11-20T22:24:24.155Z,1.40
2022-11-20T22:26:51.625Z,1.40
2022-11-20T22:29:21.059Z,1.40
2022-11-20T22:31:48.401Z,1.40
2022-11-20T22:34:15.596Z,1.40
2022-11-20T22:36:42.681Z,1.40
2022-11-20T22:39:09.758Z,1.40
2022-11-20T22:41:36.909Z,1.40
2022-11-20T22:44:07.213Z,1.40
2022-11-20T22:46:36.684Z,1.40
2022-11-20T22:49:10.829Z,1.40
2022-11-20T22:51:40.917Z,1.40
2022-11-20T22:54:10.875Z,1.40
2022-11-20T22:56:38.059Z,1.40
2022-11-20T22:59:05.320Z,1.40
2022-11-20T23:01:35.161Z,1.40
2022-11-20T23:04:05.603Z,1.40
2022-11-20T23:06:34.397Z,1.40
2022-11-20T23:09:04.134Z,1.40
2022-11-20T23:11:33.335Z,1.40
2022-11-20T23:14:04.426Z,1.40
2022-11-20T23:16:35.693Z,1.30
2022-11-20T23:19:11.135Z,1.30
2022-11-20T23:21:40.867Z,1.30
2022-11-20T23:24:09.496Z,1.30
2022-11-20T23:26:40.606Z,1.30
2022-11-20T23:29:08.344Z,1.30
2022-11-20T23:31:35.908Z,1.30
2022-11-20T23:34:05.214Z,1.30
2022-11-20T23:36:32.874Z,1.30
2022-11-20T23:39:00.014Z,1.30
2022-11-20T23:41:29.273Z,1.30
2022-11-20T23:43:56.370Z,1.30
2022-11-20T23:46:23.347Z,1.30
2022-11-20T23:48:50.370Z,1.30
2022-11-20T23:51:17.997Z,1.30
2022-11-20T23:53:45.006Z,1.30
2022-11-20T23:56:15.967Z,1.30
2022-11-20T23:58:43.051Z,1.30
